createdAt,value
2022-07-30T00:05:45.112Z,99576.02
2022-07-30T00:15:51.038Z,99550.76
2022-07-30T00:25:56.926Z,99546.85
2022-07-30T00:36:02.830Z,99537.99
2022-07-30T00:46:08.835Z,99520.70
2022-07-30T00:56:14.671Z,99500.16
2022-07-30T01:06:20.766Z,99489.95
2022-07-30T01:16:26.715Z,99496.77
2022-07-30T01:26:34.029Z,99486.04
2022-07-30T01:36:40.351Z,99475.92
2022-07-30T01:46:47.444Z,99468.13
2022-07-30T01:56:55.369Z,99465.02
2022-07-30T02:07:05.848Z,99458.92
2022-07-30T02:17:19.123Z,99455.90
2022-07-30T02:27:32.219Z,99451.56
2022-07-30T02:37:42.922Z,99443.70
2022-07-30T02:47:55.001Z,99434.99
2022-07-30T02:58:02.509Z,99432.78
2022-07-30T03:08:10.914Z,99429.06
2022-07-30T03:18:15.939Z,99435.45
2022-07-30T03:28:23.257Z,99437.08
2022-07-30T03:38:29.768Z,99442.16
2022-07-30T03:48:37.905Z,99424.92
2022-07-30T03:58:43.854Z,99422.02
2022-07-30T04:08:49.561Z,99418.58
2022-07-30T04:18:58.467Z,99414.14
2022-07-30T04:29:06.302Z,99416.48
2022-07-30T04:39:12.254Z,99416.36
2022-07-30T04:49:20.598Z,99420.67
2022-07-30T04:59:27.959Z,99418.84
2022-07-30T05:09:34.711Z,99413.02
2022-07-30T05:19:40.601Z,99402.20
2022-07-30T05:29:46.427Z,99397.61
2022-07-30T05:39:59.251Z,99392.15
2022-07-30T05:50:10.195Z,99392.61
2022-07-30T06:00:17.486Z,99396.99
2022-07-30T06:10:23.520Z,99400.14
2022-07-30T06:20:29.548Z,99396.73
2022-07-30T06:30:35.329Z,99390.23
2022-07-30T06:40:41.847Z,99389.66
2022-07-30T06:50:47.656Z,99392.25
2022-07-30T07:00:53.471Z,99378.97
2022-07-30T07:10:59.275Z,99373.41
2022-07-30T07:21:04.975Z,99354.83
2022-07-30T07:31:11.985Z,99349.76
2022-07-30T07:41:48.209Z,99349.40
2022-07-30T07:51:54.912Z,99341.98
2022-07-30T08:02:03.803Z,99340.52
2022-07-30T08:12:10.523Z,99342.46
2022-07-30T08:22:16.295Z,99340.89
2022-07-30T08:32:22.029Z,99347.17
2022-07-30T08:42:30.284Z,99344.55
2022-07-30T08:52:38.864Z,99342.64
2022-07-30T09:02:45.141Z,99338.18
2022-07-30T09:12:50.916Z,99340.38
2022-07-30T09:22:59.366Z,99356.91
2022-07-30T09:33:03.884Z,99350.48
2022-07-30T09:43:12.524Z,99347.41
2022-07-30T09:53:19.095Z,99345.48
2022-07-30T10:03:34.096Z,99339.60
2022-07-30T10:13:45.661Z,99336.43
2022-07-30T10:23:52.540Z,99336.96
2022-07-30T10:33:59.259Z,99315.92
2022-07-30T10:44:39.038Z,99305.28
2022-07-30T10:54:47.504Z,99301.02
2022-07-30T11:05:13.313Z,99298.47
2022-07-30T11:15:22.394Z,99292.91
2022-07-30T11:25:51.155Z,99284.04
2022-07-30T11:36:17.450Z,99279.48
2022-07-30T11:46:29.860Z,99276.56
2022-07-30T11:56:36.238Z,99269.33
2022-07-30T12:06:48.648Z,99268.90
2022-07-30T12:16:55.490Z,99264.20
2022-07-30T12:27:08.545Z,99260.73
2022-07-30T12:37:15.444Z,99259.61
2022-07-30T12:47:26.261Z,99249.20
2022-07-30T12:57:45.526Z,99252.13
2022-07-30T13:08:00.296Z,99246.10
2022-07-30T13:18:06.328Z,99245.89
2022-07-30T13:28:12.185Z,99234.83
2022-07-30T13:38:18.347Z,99228.60
2022-07-30T13:48:24.173Z,99236.20
2022-07-30T13:58:35.754Z,99226.92
2022-07-30T14:08:42.078Z,99221.14
2022-07-30T14:18:48.084Z,99213.00
2022-07-30T14:28:53.737Z,99206.75
2022-07-30T14:39:00.493Z,99194.48
2022-07-30T14:49:06.530Z,99184.74
2022-07-30T14:59:12.610Z,99186.33
2022-07-30T15:09:19.839Z,99182.02
2022-07-30T15:19:26.936Z,99180.52
2022-07-30T15:29:32.750Z,99175.30
2022-07-30T15:39:38.810Z,99169.67
2022-07-30T15:49:44.815Z,99159.28
2022-07-30T15:59:51.042Z,99150.13
2022-07-30T16:09:57.480Z,99139.82
2022-07-30T16:20:03.987Z,99133.91
2022-07-30T16:30:12.818Z,99137.30
2022-07-30T16:40:18.563Z,99140.13
2022-07-30T16:50:24.572Z,99140.05
2022-07-30T17:00:30.804Z,99135.02
2022-07-30T17:10:36.655Z,99136.13
2022-07-30T17:20:42.894Z,99130.48
2022-07-30T17:30:49.036Z,99125.23
2022-07-30T17:40:54.728Z,99126.71
2022-07-30T17:51:00.730Z,99124.67
2022-07-30T18:01:08.460Z,99114.95
2022-07-30T18:11:14.681Z,99123.46
2022-07-30T18:21:20.850Z,99131.20
2022-07-30T18:31:26.691Z,99135.35
2022-07-30T18:41:32.483Z,99128.77
2022-07-30T18:51:38.628Z,99124.77
2022-07-30T19:01:44.366Z,99117.23
2022-07-30T19:11:50.390Z,99104.25
2022-07-30T19:21:56.981Z,99102.87
2022-07-30T19:32:02.841Z,99104.85
2022-07-30T19:42:10.119Z,99090.53
2022-07-30T19:52:25.238Z,99082.58
2022-07-30T20:02:35.599Z,99069.23
2022-07-30T20:12:49.405Z,99059.10
2022-07-30T20:22:55.534Z,99050.64
2022-07-30T20:33:01.435Z,99041.58
2022-07-30T20:43:07.637Z,99038.52
2022-07-30T20:53:13.903Z,99038.02
2022-07-30T21:03:21.451Z,99021.16
2022-07-30T21:13:27.676Z,99020.36
2022-07-30T21:23:34.294Z,99027.52
2022-07-30T21:33:40.608Z,99019.77
2022-07-30T21:43:49.243Z,99010.65
2022-07-30T21:53:55.166Z,99018.34
2022-07-30T22:04:07.799Z,99021.17
2022-07-30T22:14:13.865Z,99013.52
2022-07-30T22:24:29.827Z,99005.45
2022-07-30T22:34:36.935Z,98995.73
2022-07-30T22:44:46.253Z,98988.48
2022-07-30T22:54:53.305Z,98974.42
2022-07-30T23:04:59.234Z,98963.75
2022-07-30T23:15:11.590Z,98955.33
2022-07-30T23:25:15.905Z,98943.27
2022-07-30T23:35:21.707Z,98931.16
2022-07-30T23:45:28.047Z,98915.83
2022-07-30T23:55:36.160Z,98902.36
